createdAt,value
2022-12-07T00:01:27.604Z,2.30
2022-12-07T00:03:58.103Z,2.40
2022-12-07T00:06:24.449Z,2.20
2022-12-07T00:08:50.777Z,1.80
2022-12-07T00:11:22.077Z,2.13
2022-12-07T00:13:53.515Z,1.75
2022-12-07T00:16:21.484Z,2.45
2022-12-07T00:18:47.943Z,2.20
2022-12-07T00:21:23.632Z,2.10
2022-12-07T00:23:51.728Z,2.00
2022-12-07T00:26:20.147Z,2.03
2022-12-07T00:28:51.902Z,2.00
2022-12-07T00:31:20.214Z,1.90
2022-12-07T00:33:47.378Z,1.80
2022-12-07T00:36:16.656Z,1.57
2022-12-07T00:38:43.464Z,2.08
2022-12-07T00:41:21.028Z,1.30
2022-12-07T00:43:48.793Z,2.35
2022-12-07T00:46:16.702Z,2.35
2022-12-07T00:48:43.840Z,1.97
2022-12-07T00:51:12.973Z,2.03
2022-12-07T00:53:41.884Z,1.63
2022-12-07T00:56:10.954Z,1.55
2022-12-07T00:58:37.444Z,1.70
2022-12-07T01:01:05.791Z,1.43
2022-12-07T01:03:32.635Z,1.60
2022-12-07T01:05:59.175Z,1.60
2022-12-07T01:08:26.895Z,1.40
2022-12-07T01:11:01.390Z,1.90
2022-12-07T01:13:29.175Z,1.77
2022-12-07T01:16:00.576Z,1.70
2022-12-07T01:18:28.965Z,1.60
2022-12-07T01:21:03.653Z,1.50
2022-12-07T01:23:31.324Z,1.70
2022-12-07T01:25:59.670Z,1.40
2022-12-07T01:28:27.486Z,1.23
2022-12-07T01:31:05.860Z,1.88
2022-12-07T01:33:37.984Z,1.20
2022-12-07T01:36:07.468Z,1.20
2022-12-07T01:38:34.522Z,1.40
2022-12-07T01:41:02.692Z,1.15
2022-12-07T01:43:31.394Z,1.08
2022-12-07T01:45:58.067Z,1.17
2022-12-07T01:48:44.770Z,0.82
2022-12-07T01:51:14.463Z,1.13
2022-12-07T01:53:46.358Z,1.25
2022-12-07T01:56:19.870Z,1.20
2022-12-07T01:58:46.375Z,1.13
2022-12-07T02:01:12.819Z,1.00
2022-12-07T02:03:42.520Z,0.80
2022-12-07T02:06:11.244Z,1.55
2022-12-07T02:08:38.008Z,0.70
2022-12-07T02:11:07.178Z,1.15
2022-12-07T02:13:36.338Z,0.93
2022-12-07T02:16:27.707Z,1.27
2022-12-07T02:19:22.763Z,0.80
2022-12-07T02:22:15.695Z,0.95
2022-12-07T02:24:56.382Z,0.80
2022-12-07T02:27:51.235Z,1.10
2022-12-07T02:30:23.044Z,1.87
2022-12-07T02:32:58.861Z,0.77
2022-12-07T02:35:29.753Z,1.95
2022-12-07T02:38:07.511Z,1.08
2022-12-07T02:40:48.878Z,1.27
2022-12-07T02:43:20.918Z,1.10
2022-12-07T02:45:49.395Z,1.00
2022-12-07T02:48:18.116Z,0.90
2022-12-07T02:50:52.878Z,1.00
2022-12-07T02:53:36.731Z,0.88
2022-12-07T02:56:37.828Z,0.70
2022-12-07T02:59:48.707Z,0.70
2022-12-07T03:02:30.198Z,0.70
2022-12-07T03:05:21.122Z,0.65
2022-12-07T03:08:16.458Z,0.93
2022-12-07T03:10:56.238Z,0.93
2022-12-07T03:14:00.861Z,0.70
2022-12-07T03:16:36.366Z,0.60
2022-12-07T03:19:14.065Z,0.90
2022-12-07T03:21:53.283Z,0.60
2022-12-07T03:24:22.792Z,0.70
2022-12-07T03:26:53.739Z,0.30
2022-12-07T03:29:31.330Z,0.40
2022-12-07T03:32:15.911Z,0.57
2022-12-07T03:35:01.532Z,0.50
2022-12-07T03:37:35.325Z,0.87
2022-12-07T03:40:15.863Z,0.57
2022-12-07T03:42:43.162Z,0.55
2022-12-07T03:45:10.212Z,0.40
2022-12-07T03:47:42.685Z,0.40
2022-12-07T03:50:20.062Z,0.73
2022-12-07T03:52:56.741Z,0.38
2022-12-07T03:55:32.081Z,0.80
2022-12-07T03:58:04.806Z,0.55
2022-12-07T04:00:31.761Z,0.60
2022-12-07T04:02:58.937Z,0.93
2022-12-07T04:05:25.854Z,0.60
2022-12-07T04:07:52.322Z,0.60
2022-12-07T04:10:19.073Z,0.47
2022-12-07T04:12:45.500Z,0.70
2022-12-07T04:15:11.951Z,0.70
2022-12-07T04:17:38.627Z,0.40
2022-12-07T04:20:06.402Z,0.70
2022-12-07T04:22:32.912Z,0.63
2022-12-07T04:24:59.330Z,0.55
2022-12-07T04:27:25.675Z,0.80
2022-12-07T04:29:52.027Z,0.60
2022-12-07T04:32:18.359Z,0.40
2022-12-07T04:34:44.724Z,0.50
2022-12-07T04:37:11.162Z,0.55
2022-12-07T04:39:37.858Z,0.50
2022-12-07T04:42:04.782Z,0.32
2022-12-07T04:44:31.396Z,0.43
2022-12-07T04:46:58.048Z,0.32
2022-12-07T04:49:25.586Z,0.98
2022-12-07T04:51:52.594Z,0.80
2022-12-07T04:54:19.020Z,0.50
2022-12-07T04:56:45.877Z,0.80
2022-12-07T04:59:13.342Z,0.30
2022-12-07T05:01:40.147Z,0.50
2022-12-07T05:04:07.212Z,0.40
2022-12-07T05:06:33.625Z,0.40
2022-12-07T05:09:00.043Z,0.30
2022-12-07T05:11:41.584Z,0.30
2022-12-07T05:14:10.329Z,0.38
2022-12-07T05:16:37.131Z,0.40
2022-12-07T05:19:03.963Z,0.65
2022-12-07T05:21:30.373Z,0.38
2022-12-07T05:23:56.921Z,0.28
2022-12-07T05:26:23.329Z,0.30
2022-12-07T05:28:54.321Z,0.47
2022-12-07T05:31:21.239Z,0.55
2022-12-07T05:33:47.845Z,0.30
2022-12-07T05:36:14.495Z,0.25
2022-12-07T05:38:41.027Z,0.40
2022-12-07T05:41:08.881Z,0.20
2022-12-07T05:43:35.237Z,0.32
2022-12-07T05:46:01.645Z,0.22
2022-12-07T05:48:28.087Z,0.28
2022-12-07T05:50:54.533Z,0.35
2022-12-07T05:53:23.179Z,0.20
2022-12-07T05:55:50.255Z,0.30
2022-12-07T05:58:35.390Z,0.20
2022-12-07T06:01:01.763Z,0.40
2022-12-07T06:03:28.193Z,0.30
2022-12-07T06:05:54.976Z,0.47
2022-12-07T06:08:21.626Z,0.73
2022-12-07T06:11:09.298Z,0.20
2022-12-07T06:13:35.663Z,0.30
2022-12-07T06:16:02.087Z,0.20
2022-12-07T06:18:28.484Z,0.47
2022-12-07T06:20:54.878Z,0.40
2022-12-07T06:23:21.320Z,0.57
2022-12-07T06:25:47.646Z,0.65
2022-12-07T06:28:13.970Z,0.30
2022-12-07T06:30:40.301Z,0.47
2022-12-07T06:33:07.270Z,0.50
2022-12-07T06:35:34.573Z,0.40
2022-12-07T06:38:00.906Z,0.77
2022-12-07T06:40:27.300Z,0.60
2022-12-07T06:42:53.660Z,0.40
2022-12-07T06:45:20.414Z,0.30
2022-12-07T06:47:47.405Z,0.47
2022-12-07T06:50:14.155Z,0.40
2022-12-07T06:52:40.497Z,0.30
2022-12-07T06:55:07.254Z,0.40
2022-12-07T06:57:33.580Z,0.52
2022-12-07T07:00:00.313Z,0.30
2022-12-07T07:02:27.208Z,0.43
2022-12-07T07:04:53.604Z,0.50
2022-12-07T07:07:19.979Z,0.43
2022-12-07T07:09:46.362Z,0.80
2022-12-07T07:12:12.669Z,0.60
2022-12-07T07:14:39.082Z,0.30
2022-12-07T07:17:05.541Z,0.60
2022-12-07T07:19:31.950Z,0.80
2022-12-07T07:21:58.249Z,0.45
2022-12-07T07:24:24.570Z,0.50
2022-12-07T07:26:50.955Z,0.75
2022-12-07T07:29:17.335Z,0.68
2022-12-07T07:31:43.805Z,0.70
2022-12-07T07:34:10.158Z,0.60
2022-12-07T07:36:36.545Z,0.60
2022-12-07T07:39:03.245Z,0.52
2022-12-07T07:41:29.632Z,1.10
2022-12-07T07:43:56.004Z,0.70
2022-12-07T07:46:22.427Z,0.60
2022-12-07T07:48:48.838Z,0.60
2022-12-07T07:51:15.370Z,0.43
2022-12-07T07:53:41.817Z,0.38
2022-12-07T07:56:08.298Z,1.07
2022-12-07T07:58:34.694Z,0.70
2022-12-07T08:01:06.316Z,0.88
2022-12-07T08:03:33.038Z,0.90
2022-12-07T08:05:59.519Z,1.00
2022-12-07T08:08:25.949Z,0.60
2022-12-07T08:10:52.343Z,0.75
2022-12-07T08:13:18.810Z,0.73
2022-12-07T08:15:47.367Z,1.15
2022-12-07T08:18:15.499Z,0.88
2022-12-07T08:20:42.753Z,0.80
2022-12-07T08:23:10.137Z,1.20
2022-12-07T08:25:36.763Z,0.90
2022-12-07T08:28:03.673Z,0.68
2022-12-07T08:30:30.946Z,0.57
2022-12-07T08:32:58.016Z,0.60
2022-12-07T08:35:25.006Z,0.50
2022-12-07T08:37:51.404Z,0.70
2022-12-07T08:40:19.740Z,0.75
2022-12-07T08:42:50.837Z,0.60
2022-12-07T08:45:24.995Z,0.70
2022-12-07T08:48:03.653Z,1.17
2022-12-07T08:50:30.438Z,0.90
2022-12-07T08:52:59.479Z,0.85
2022-12-07T08:55:26.733Z,0.40
2022-12-07T08:57:53.143Z,0.60
2022-12-07T09:00:19.756Z,0.70
2022-12-07T09:02:47.360Z,0.40
2022-12-07T09:05:16.889Z,0.45
2022-12-07T09:07:47.240Z,0.38
2022-12-07T09:10:13.709Z,0.50
2022-12-07T09:12:40.231Z,0.40
2022-12-07T09:15:07.085Z,0.60
2022-12-07T09:17:34.985Z,0.30
2022-12-07T09:20:02.423Z,0.90
2022-12-07T09:22:32.331Z,0.80
2022-12-07T09:24:59.745Z,0.73
2022-12-07T09:27:27.058Z,0.55
2022-12-07T09:29:53.796Z,0.70
2022-12-07T09:32:20.445Z,0.40
2022-12-07T09:34:46.945Z,0.50
2022-12-07T09:37:13.401Z,0.47
2022-12-07T09:39:44.632Z,0.63
2022-12-07T09:42:25.775Z,0.52
2022-12-07T09:44:52.194Z,0.40
2022-12-07T09:47:18.624Z,0.43
2022-12-07T09:49:45.032Z,0.40
2022-12-07T09:52:27.716Z,0.73
2022-12-07T09:54:54.297Z,0.43
2022-12-07T09:57:38.787Z,0.43
2022-12-07T10:00:12.587Z,0.40
2022-12-07T10:02:43.830Z,0.38
2022-12-07T10:05:23.505Z,0.40
2022-12-07T10:07:51.067Z,0.40
2022-12-07T10:10:32.687Z,0.30
2022-12-07T10:13:03.996Z,0.40
2022-12-07T10:15:56.258Z,0.47
2022-12-07T10:18:38.075Z,0.82
2022-12-07T10:21:14.383Z,0.35
2022-12-07T10:24:00.374Z,0.50
2022-12-07T10:26:35.809Z,0.70
2022-12-07T10:29:15.253Z,0.57
2022-12-07T10:31:42.880Z,0.50
2022-12-07T10:34:25.516Z,0.60
2022-12-07T10:36:54.115Z,0.50
2022-12-07T10:39:23.038Z,0.80
2022-12-07T10:42:00.197Z,0.40
2022-12-07T10:44:30.699Z,0.47
2022-12-07T10:47:11.449Z,0.43
2022-12-07T10:50:00.932Z,0.57
2022-12-07T10:52:39.866Z,0.50
2022-12-07T10:55:21.123Z,0.50
2022-12-07T10:58:05.204Z,0.40
2022-12-07T11:01:01.004Z,0.40
2022-12-07T11:03:54.698Z,0.60
2022-12-07T11:06:36.360Z,1.03
2022-12-07T11:10:07.442Z,0.52
2022-12-07T11:12:44.674Z,0.85
2022-12-07T11:15:23.222Z,0.50
2022-12-07T11:17:53.152Z,0.40
2022-12-07T11:20:50.841Z,0.50
2022-12-07T11:23:49.731Z,0.50
2022-12-07T11:26:26.391Z,0.40
2022-12-07T11:29:24.031Z,0.60
2022-12-07T11:32:13.487Z,0.40
2022-12-07T11:34:48.675Z,0.50
2022-12-07T11:37:19.746Z,0.30
2022-12-07T11:39:51.162Z,0.40
2022-12-07T11:42:23.679Z,0.40
2022-12-07T11:45:17.207Z,0.40
2022-12-07T11:47:48.546Z,0.37
2022-12-07T11:50:27.054Z,0.50
2022-12-07T11:53:01.118Z,0.43
2022-12-07T11:55:42.203Z,0.55
2022-12-07T11:58:35.000Z,0.52
2022-12-07T12:01:44.414Z,0.47
2022-12-07T12:04:10.730Z,0.63
2022-12-07T12:06:37.763Z,0.40
2022-12-07T12:09:41.943Z,0.45
2022-12-07T12:15:37.005Z,0.90
2022-12-07T12:18:43.355Z,0.40
2022-12-07T12:21:16.677Z,0.40
2022-12-07T12:23:49.453Z,0.40
2022-12-07T12:26:28.837Z,0.40
2022-12-07T12:28:56.964Z,0.50
2022-12-07T12:31:23.363Z,0.50
2022-12-07T12:33:52.505Z,0.60
2022-12-07T12:36:24.931Z,0.50
2022-12-07T12:39:00.169Z,0.30
2022-12-07T12:41:49.931Z,0.40
2022-12-07T12:44:16.263Z,0.57
2022-12-07T12:46:54.862Z,0.30
2022-12-07T12:49:21.170Z,0.52
2022-12-07T12:51:53.546Z,0.50
2022-12-07T12:54:31.901Z,0.80
2022-12-07T12:57:32.952Z,0.50
2022-12-07T13:00:04.610Z,0.30
2022-12-07T13:02:33.051Z,0.57
2022-12-07T13:05:07.122Z,0.30
2022-12-07T13:07:50.883Z,0.20
2022-12-07T13:10:33.530Z,0.30
2022-12-07T13:13:26.153Z,0.57
2022-12-07T13:16:15.246Z,0.30
2022-12-07T13:18:42.655Z,0.15
2022-12-07T13:21:08.983Z,0.17
2022-12-07T13:23:47.503Z,0.20
2022-12-07T13:26:38.036Z,0.15
2022-12-07T13:29:10.569Z,0.10
2022-12-07T13:31:57.954Z,0.10
2022-12-07T13:34:37.942Z,0.20
2022-12-07T13:37:22.508Z,0.28
2022-12-07T13:39:52.147Z,0.20
2022-12-07T13:42:36.087Z,0.20
2022-12-07T13:45:43.764Z,0.60
2022-12-07T13:48:17.531Z,0.40
2022-12-07T13:50:43.987Z,0.40
2022-12-07T13:53:14.999Z,0.60
2022-12-07T13:55:50.867Z,0.50
2022-12-07T13:58:20.840Z,0.60
2022-12-07T14:00:47.271Z,0.90
2022-12-07T14:03:13.561Z,0.70
2022-12-07T14:05:44.339Z,0.70
2022-12-07T14:08:11.179Z,0.88
2022-12-07T14:10:39.711Z,1.58
2022-12-07T14:13:27.795Z,0.70
2022-12-07T14:15:54.523Z,0.70
2022-12-07T14:18:29.763Z,0.68
2022-12-07T14:21:14.943Z,0.65
2022-12-07T14:23:41.648Z,0.70
2022-12-07T14:26:16.788Z,0.70
2022-12-07T14:28:44.481Z,0.80
2022-12-07T14:31:24.965Z,0.60
2022-12-07T14:34:00.206Z,0.70
2022-12-07T14:36:26.574Z,0.70
2022-12-07T14:38:55.189Z,0.70
2022-12-07T14:41:42.166Z,0.60
2022-12-07T14:44:23.891Z,0.40
2022-12-07T14:49:39.244Z,0.40
2022-12-07T14:54:55.579Z,0.40
2022-12-07T14:57:21.919Z,0.57
2022-12-07T14:59:48.288Z,0.43
2022-12-07T15:02:17.123Z,0.38
2022-12-07T15:04:43.609Z,0.50
2022-12-07T15:07:18.439Z,0.40
2022-12-07T15:09:44.863Z,0.40
2022-12-07T15:12:11.299Z,0.30
2022-12-07T15:14:37.712Z,0.30
2022-12-07T15:17:09.160Z,0.30
2022-12-07T15:19:36.326Z,0.73
2022-12-07T15:22:02.699Z,0.40
2022-12-07T15:24:29.132Z,0.40
2022-12-07T15:26:55.608Z,0.40
2022-12-07T15:29:23.587Z,0.20
2022-12-07T15:31:56.545Z,0.45
2022-12-07T15:34:31.893Z,0.40
2022-12-07T15:37:02.757Z,0.30
2022-12-07T15:39:29.212Z,0.32
2022-12-07T15:41:55.543Z,0.40
2022-12-07T15:44:40.167Z,0.50
2022-12-07T15:47:06.752Z,0.40
2022-12-07T15:49:33.643Z,0.40
2022-12-07T15:52:00.100Z,0.60
2022-12-07T15:54:28.722Z,0.40
2022-12-07T15:56:55.751Z,0.40
2022-12-07T15:59:22.619Z,0.60
2022-12-07T16:01:49.036Z,0.52
2022-12-07T16:04:15.397Z,0.50
2022-12-07T16:06:41.804Z,0.70
2022-12-07T16:09:08.381Z,0.45
2022-12-07T16:11:35.048Z,0.70
2022-12-07T16:14:01.487Z,0.75
2022-12-07T16:16:28.890Z,0.80
2022-12-07T16:18:55.691Z,1.00
2022-12-07T16:21:25.327Z,0.88
2022-12-07T16:23:52.594Z,0.85
2022-12-07T16:26:22.240Z,0.75
2022-12-07T16:28:53.197Z,0.50
2022-12-07T16:31:21.897Z,0.60
2022-12-07T16:33:49.990Z,0.65
2022-12-07T16:36:28.898Z,0.40
2022-12-07T16:39:04.336Z,0.50
2022-12-07T16:41:31.325Z,0.68
2022-12-07T16:43:57.748Z,0.80
2022-12-07T16:46:24.347Z,0.57
2022-12-07T16:48:50.752Z,0.63
2022-12-07T16:51:17.146Z,0.80
2022-12-07T16:53:43.820Z,0.57
2022-12-07T16:56:15.342Z,0.57
2022-12-07T16:58:43.479Z,0.50
2022-12-07T17:01:14.932Z,0.57
2022-12-07T17:03:41.429Z,0.73
2022-12-07T17:06:15.298Z,0.80
2022-12-07T17:08:42.235Z,0.53
2022-12-07T17:11:13.436Z,0.63
2022-12-07T17:13:59.377Z,0.55
2022-12-07T17:16:26.192Z,0.68
2022-12-07T17:18:52.963Z,0.80
2022-12-07T17:21:19.667Z,0.93
2022-12-07T17:23:46.916Z,0.80
2022-12-07T17:26:16.607Z,0.90
2022-12-07T17:28:43.336Z,0.50
2022-12-07T17:31:12.856Z,0.70
2022-12-07T17:33:39.335Z,0.63
2022-12-07T17:36:11.913Z,0.73
2022-12-07T17:38:38.421Z,1.42
2022-12-07T17:41:47.735Z,0.70
2022-12-07T17:44:19.204Z,1.00
2022-12-07T17:46:48.122Z,1.30
2022-12-07T17:49:14.693Z,1.60
2022-12-07T17:51:59.904Z,0.75
2022-12-07T17:54:26.508Z,1.05
2022-12-07T17:56:52.956Z,1.00
2022-12-07T17:59:19.456Z,0.87
2022-12-07T18:01:46.195Z,0.80
2022-12-07T18:04:12.880Z,0.60
2022-12-07T18:06:39.694Z,0.45
2022-12-07T18:09:07.459Z,0.50
2022-12-07T18:11:34.231Z,0.37
2022-12-07T18:14:00.839Z,0.50
2022-12-07T18:16:29.572Z,0.60
2022-12-07T18:18:59.766Z,0.60
2022-12-07T18:21:27.761Z,0.90
2022-12-07T18:23:56.971Z,1.07
2022-12-07T18:26:25.695Z,1.17
2022-12-07T18:28:52.783Z,0.93
2022-12-07T18:31:20.402Z,0.70
2022-12-07T18:33:48.341Z,0.90
2022-12-07T18:36:16.714Z,1.20
2022-12-07T18:38:44.486Z,1.20
2022-12-07T18:41:13.233Z,1.60
2022-12-07T18:43:39.702Z,1.08
2022-12-07T18:46:17.187Z,1.15
2022-12-07T18:48:44.266Z,1.47
2022-12-07T18:51:13.135Z,1.02
2022-12-07T18:53:39.706Z,1.00
2022-12-07T18:56:26.814Z,1.40
2022-12-07T18:59:14.346Z,0.93
2022-12-07T19:01:42.578Z,1.20
2022-12-07T19:04:10.699Z,1.58
2022-12-07T19:06:37.411Z,1.52
2022-12-07T19:09:04.577Z,1.58
2022-12-07T19:11:51.948Z,1.65
2022-12-07T19:14:33.027Z,1.80
2022-12-07T19:17:02.730Z,1.63
2022-12-07T19:19:38.046Z,1.80
2022-12-07T19:22:05.774Z,1.25
2022-12-07T19:24:32.382Z,1.63
2022-12-07T19:26:59.745Z,1.80
2022-12-07T19:29:28.723Z,2.10
2022-12-07T19:31:55.264Z,2.00
2022-12-07T19:34:21.760Z,1.60
2022-12-07T19:36:48.248Z,1.35
2022-12-07T19:39:15.837Z,2.07
2022-12-07T19:41:44.465Z,1.63
2022-12-07T19:44:23.355Z,1.63
2022-12-07T19:46:51.066Z,1.73
2022-12-07T19:49:19.440Z,1.92
2022-12-07T19:51:51.351Z,2.37
2022-12-07T19:54:20.222Z,2.08
2022-12-07T19:56:47.598Z,1.73
2022-12-07T19:59:15.014Z,2.10
2022-12-07T20:01:42.477Z,2.05
2022-12-07T20:04:12.866Z,1.90
2022-12-07T20:06:39.680Z,1.60
2022-12-07T20:09:06.193Z,2.05
2022-12-07T20:11:51.257Z,1.85
2022-12-07T20:14:17.691Z,1.80
2022-12-07T20:16:46.695Z,2.30
2022-12-07T20:19:14.382Z,2.50
2022-12-07T20:21:42.206Z,2.25
2022-12-07T20:24:12.048Z,1.92
2022-12-07T20:26:38.627Z,2.10
2022-12-07T20:29:14.766Z,2.20
2022-12-07T20:31:45.053Z,2.08
2022-12-07T20:34:11.606Z,2.28
2022-12-07T20:36:38.303Z,2.25
2022-12-07T20:39:05.731Z,2.28
2022-12-07T20:41:51.658Z,2.30
2022-12-07T20:44:18.874Z,3.33
2022-12-07T20:46:46.493Z,2.38
2022-12-07T20:49:15.243Z,2.50
2022-12-07T20:51:42.852Z,2.10
2022-12-07T20:54:09.613Z,2.70
2022-12-07T20:56:37.095Z,2.28
2022-12-07T20:59:09.602Z,2.42
2022-12-07T21:01:37.039Z,2.47
2022-12-07T21:04:03.667Z,2.05
2022-12-07T21:06:30.131Z,2.30
2022-12-07T21:08:58.684Z,2.75
2022-12-07T21:11:27.416Z,2.30
2022-12-07T21:13:53.966Z,2.00
2022-12-07T21:16:26.962Z,2.38
2022-12-07T21:18:59.992Z,2.27
2022-12-07T21:21:26.392Z,2.08
2022-12-07T21:24:01.570Z,2.28
2022-12-07T21:26:29.138Z,2.05
2022-12-07T21:28:56.937Z,1.75
2022-12-07T21:31:23.356Z,1.97
2022-12-07T21:33:50.325Z,1.80
2022-12-07T21:36:19.458Z,2.25
2022-12-07T21:38:45.934Z,1.70
2022-12-07T21:41:21.680Z,2.40
2022-12-07T21:43:48.415Z,1.47
2022-12-07T21:46:16.078Z,1.65
2022-12-07T21:48:43.370Z,1.60
2022-12-07T21:51:12.416Z,1.73
2022-12-07T21:53:40.638Z,1.30
2022-12-07T21:56:23.467Z,1.77
2022-12-07T21:58:51.393Z,1.58
2022-12-07T22:01:20.061Z,1.15
2022-12-07T22:03:47.242Z,1.40
2022-12-07T22:06:19.295Z,1.33
2022-12-07T22:08:45.831Z,1.30
2022-12-07T22:11:13.489Z,1.60
2022-12-07T22:14:03.141Z,1.05
2022-12-07T22:16:33.055Z,1.38
2022-12-07T22:18:59.402Z,1.27
2022-12-07T22:21:26.873Z,1.20
2022-12-07T22:23:53.730Z,1.70
2022-12-07T22:26:24.327Z,1.73
2022-12-07T22:28:51.184Z,1.30
2022-12-07T22:31:19.935Z,1.23
2022-12-07T22:33:46.812Z,1.70
2022-12-07T22:36:13.624Z,1.67
2022-12-07T22:38:41.132Z,1.70
2022-12-07T22:41:19.674Z,1.45
2022-12-07T22:43:46.077Z,2.00
2022-12-07T22:46:12.461Z,2.30
2022-12-07T22:48:38.835Z,1.88
2022-12-07T22:51:05.154Z,1.80
2022-12-07T22:53:31.671Z,1.30
2022-12-07T22:55:58.022Z,1.17
2022-12-07T22:58:24.451Z,1.63
2022-12-07T23:00:50.840Z,1.42
2022-12-07T23:03:17.222Z,1.48
2022-12-07T23:05:46.099Z,1.48
2022-12-07T23:08:12.997Z,1.73
2022-12-07T23:10:47.376Z,1.70
2022-12-07T23:13:35.084Z,1.45
2022-12-07T23:16:12.102Z,1.55
2022-12-07T23:18:40.634Z,1.30
2022-12-07T23:21:07.608Z,1.60
2022-12-07T23:23:34.765Z,1.40
2022-12-07T23:26:06.074Z,1.13
2022-12-07T23:28:32.735Z,1.20
2022-12-07T23:31:06.211Z,1.40
2022-12-07T23:33:33.367Z,1.00
2022-12-07T23:36:18.134Z,1.30
2022-12-07T23:38:46.263Z,1.25
2022-12-07T23:41:14.957Z,1.55
2022-12-07T23:43:42.142Z,1.85
2022-12-07T23:46:17.996Z,1.70
2022-12-07T23:48:45.127Z,2.10
2022-12-07T23:51:12.591Z,1.60
2022-12-07T23:53:42.174Z,1.65
2022-12-07T23:56:12.672Z,2.00
2022-12-07T23:58:39.236Z,2.00
